Time;durP1;ratioP1;P1;durP2;ratioP2;P2;SDS_P1;SDS_P2;PMS_P1;PMS_P2;Temp;Humidity;BMP_temperature;BMP_pressure;BME280_temperature;BME280_humidity;BME280_pressure;Samples;Min_cycle;Max_cycle;Signal;HPM_P1;HPM_P2
2023/09/23 00:02:43;;;;;;;3.42;2.30;;;;;;;-144.32;100.00;68061.97;10170298;29;20055;-80
2023/09/23 00:07:43;;;;;;;2.58;1.88;;;;;;;-144.32;100.00;68061.97;10172710;29;20067;-80
2023/09/23 00:12:44;;;;;;;2.83;1.80;;;;;;;-144.32;100.00;68061.97;10166805;29;20044;-79
2023/09/23 00:17:45;;;;;;;2.38;1.80;;;;;;;-144.32;100.00;68061.97;10160729;29;20394;-79
2023/09/23 00:22:46;;;;;;;2.80;1.88;;;;;;;-144.32;100.00;68061.97;10143647;29;20043;-79
2023/09/23 00:27:46;;;;;;;3.35;1.98;;;;;;;-144.32;100.00;68061.97;10164471;29;20056;-78
2023/09/23 00:32:48;;;;;;;3.05;1.70;;;;;;;-144.32;100.00;68061.97;10175504;29;20051;-78
2023/09/23 00:37:50;;;;;;;3.45;2.05;;;;;;;-144.32;100.00;68061.97;10161282;29;20424;-80
2023/09/23 00:42:55;;;;;;;2.25;2.00;;;;;;;-144.32;100.00;68061.97;10162595;29;20131;-79
2023/09/23 00:47:56;;;;;;;2.22;1.70;;;;;;;-144.32;100.00;68061.97;10171621;29;20100;-79
2023/09/23 00:52:58;;;;;;;2.97;1.95;;;;;;;-144.32;100.00;68061.97;10158767;29;20497;-78
2023/09/23 00:58:00;;;;;;;4.18;2.38;;;;;;;-144.32;100.00;68061.97;10161943;29;21417;-78
2023/09/23 01:03:02;;;;;;;3.95;2.60;;;;;;;-144.32;100.00;68061.97;10164805;29;20123;-78
2023/09/23 01:08:04;;;;;;;3.97;2.25;;;;;;;-144.32;100.00;68061.97;10159498;29;20047;-76
2023/09/23 01:13:08;;;;;;;3.88;2.70;;;;;;;-144.32;100.00;68061.97;10165772;29;20818;-77
2023/09/23 01:18:08;;;;;;;4.95;2.38;;;;;;;-144.32;100.00;68061.97;10178862;29;20048;-79
2023/09/23 01:23:10;;;;;;;3.13;2.00;;;;;;;-144.32;100.00;68061.97;10170818;29;20474;-78
2023/09/23 01:28:11;;;;;;;5.68;1.92;;;;;;;-144.32;100.00;68061.97;10173871;29;20075;-78
2023/09/23 01:33:14;;;;;;;3.38;1.83;;;;;;;-144.32;100.00;68061.97;10183481;29;20084;-80
2023/09/23 01:38:15;;;;;;;2.28;2.00;;;;;;;-144.32;100.00;68061.97;10182829;29;20582;-80
2023/09/23 01:43:15;;;;;;;2.55;1.55;;;;;;;-144.32;100.00;68061.97;10149107;29;20044;-80
2023/09/23 01:48:21;;;;;;;1.65;1.20;;;;;;;-144.32;100.00;68061.97;10156571;29;20074;-79
2023/09/23 01:53:24;;;;;;;1.90;1.48;;;;;;;-144.32;100.00;68061.97;10177129;29;20087;-79
2023/09/23 01:58:25;;;;;;;2.35;1.40;;;;;;;-144.32;100.00;68061.97;10178140;29;20052;-79
2023/09/23 02:03:27;;;;;;;3.45;1.70;;;;;;;-144.32;100.00;68061.97;10145730;29;20060;-79
2023/09/23 02:08:28;;;;;;;2.00;1.77;;;;;;;-144.32;100.00;68061.97;10163358;29;20051;-77
2023/09/23 02:13:28;;;;;;;2.05;1.58;;;;;;;-144.32;100.00;68061.97;10163918;29;20048;-77
2023/09/23 02:18:29;;;;;;;3.22;1.70;;;;;;;-144.32;100.00;68061.97;10162289;29;20056;-76
2023/09/23 02:23:29;;;;;;;2.78;1.98;;;;;;;-144.32;100.00;68061.97;10161224;29;20075;-78
2023/09/23 02:28:30;;;;;;;2.42;1.80;;;;;;;-144.32;100.00;68061.97;10157728;29;20386;-79
2023/09/23 02:33:32;;;;;;;1.95;1.75;;;;;;;-144.32;100.00;68061.97;10159515;29;20087;-79
2023/09/23 02:38:32;;;;;;;2.10;1.90;;;;;;;-144.32;100.00;68061.97;10181146;29;20471;-78
2023/09/23 02:43:33;;;;;;;3.20;1.40;;;;;;;-144.32;100.00;68061.97;10147702;29;20056;-79
2023/09/23 02:48:34;;;;;;;2.05;1.42;;;;;;;-144.32;100.00;68061.97;10170719;29;20051;-79
2023/09/23 02:53:34;;;;;;;1.40;1.27;;;;;;;-144.32;100.00;68061.97;10174978;29;20052;-79
2023/09/23 02:58:35;;;;;;;1.85;1.20;;;;;;;-144.32;100.00;68061.97;10167203;29;20461;-78
2023/09/23 03:03:40;;;;;;;1.30;1.10;;;;;;;-144.32;100.00;68061.97;10167604;29;20051;-80
2023/09/23 03:08:43;;;;;;;2.22;1.50;;;;;;;-144.32;100.00;68061.97;10157141;28;20079;-80
2023/09/23 03:13:44;;;;;;;2.30;2.10;;;;;;;-144.32;100.00;68061.97;10171151;29;20052;-79
2023/09/23 03:18:59;;;;;;;2.42;2.00;;;;;;;-144.32;100.00;68061.97;10170483;29;20135;-79
2023/09/23 03:24:00;;;;;;;2.72;2.08;;;;;;;-144.32;100.00;68061.97;10170053;29;20105;-78
2023/09/23 03:29:00;;;;;;;3.75;1.77;;;;;;;-144.32;100.00;68061.97;10164006;29;20052;-77
2023/09/23 03:34:03;;;;;;;3.17;1.95;;;;;;;-144.32;100.00;68061.97;10175305;29;20051;-79
2023/09/23 03:39:05;;;;;;;1.70;1.60;;;;;;;-144.32;100.00;68061.97;10159037;29;20098;-80
2023/09/23 03:44:10;;;;;;;2.17;1.45;;;;;;;-144.32;100.00;68061.97;10174762;28;20369;-79
2023/09/23 03:49:12;;;;;;;3.50;1.60;;;;;;;-144.32;100.00;68061.97;10156193;29;20044;-79
2023/09/23 03:54:14;;;;;;;1.95;1.77;;;;;;;-144.32;100.00;68061.97;10165904;29;20039;-79
2023/09/23 03:59:15;;;;;;;2.67;1.80;;;;;;;-144.32;100.00;68061.97;10171666;28;20190;-77
2023/09/23 04:04:17;;;;;;;2.13;1.70;;;;;;;-144.32;100.00;68061.97;10150552;29;20103;-78
2023/09/23 04:09:17;;;;;;;1.73;1.38;;;;;;;-144.32;100.00;68061.97;10157647;29;20055;-84
2023/09/23 04:14:18;;;;;;;3.13;2.13;;;;;;;-144.32;100.00;68061.97;10198419;29;20030;-80
2023/09/23 04:19:19;;;;;;;1.90;1.40;;;;;;;-144.32;100.00;68061.97;10171598;29;20051;-81
2023/09/23 04:24:20;;;;;;;1.50;1.40;;;;;;;-144.32;100.00;68061.97;10156881;29;20036;-81
2023/09/23 04:29:21;;;;;;;2.33;1.40;;;;;;;-144.32;100.00;68061.97;10198669;29;20051;-79
2023/09/23 04:34:22;;;;;;;2.72;2.53;;;;;;;-144.32;100.00;68061.97;10163937;29;20140;-79
2023/09/23 04:39:23;;;;;;;1.58;1.33;;;;;;;-144.32;100.00;68061.97;10201730;29;20095;-80
2023/09/23 04:44:24;;;;;;;2.17;1.50;;;;;;;-144.32;100.00;68061.97;10157251;29;20055;-79
2023/09/23 04:49:24;;;;;;;2.80;1.60;;;;;;;-144.32;100.00;68061.97;10198749;29;20693;-83
2023/09/23 04:54:25;;;;;;;1.20;1.10;;;;;;;-144.32;100.00;68061.97;10212182;29;20043;-83
2023/09/23 04:59:26;;;;;;;1.40;1.30;;;;;;;-144.32;100.00;68061.97;10165634;29;20052;-81
2023/09/23 05:04:27;;;;;;;2.05;1.85;;;;;;;-144.32;100.00;68061.97;10161667;29;20070;-83
2023/09/23 05:09:27;;;;;;;1.85;1.30;;;;;;;-144.32;100.00;68061.97;10176290;29;20052;-81
2023/09/23 05:14:28;;;;;;;2.67;1.63;;;;;;;-144.32;100.00;68061.97;10169208;29;20639;-81
2023/09/23 05:19:31;;;;;;;1.98;1.40;;;;;;;-144.32;100.00;68061.97;10180314;29;20048;-79
2023/09/23 05:24:31;;;;;;;1.85;1.33;;;;;;;-144.32;100.00;68061.97;10172006;29;20831;-77
2023/09/23 05:29:32;;;;;;;1.60;1.50;;;;;;;-144.32;100.00;68061.97;10176365;29;20064;-79
2023/09/23 05:34:33;;;;;;;2.38;1.88;;;;;;;-144.32;100.00;68061.97;10173814;29;20047;-77
2023/09/23 05:39:34;;;;;;;5.05;2.13;;;;;;;-144.32;100.00;68061.97;10178472;28;20048;-76
2023/09/23 05:44:35;;;;;;;2.30;1.80;;;;;;;-144.32;100.00;68061.97;10181235;29;20047;-78
2023/09/23 05:49:36;;;;;;;1.70;1.60;;;;;;;-144.32;100.00;68061.97;10185391;28;20052;-78
2023/09/23 05:54:37;;;;;;;3.05;1.75;;;;;;;-144.32;100.00;68061.97;10176307;29;20048;-79
2023/09/23 05:59:37;;;;;;;3.20;2.17;;;;;;;-144.32;100.00;68061.97;10186747;29;20382;-80
2023/09/23 06:04:38;;;;;;;3.80;2.40;;;;;;;-144.32;100.00;68061.97;10185029;28;20043;-77
2023/09/23 06:09:45;;;;;;;2.88;2.30;;;;;;;-144.32;100.00;68061.97;10178572;29;20094;-78
2023/09/23 06:14:46;;;;;;;2.83;2.20;;;;;;;-144.32;100.00;68061.97;10158277;29;20051;-76
2023/09/23 06:19:46;;;;;;;3.85;2.63;;;;;;;-144.32;100.00;68061.97;10179531;29;20099;-76
2023/09/23 06:24:52;;;;;;;4.35;2.47;;;;;;;-144.32;100.00;68061.97;10183616;29;20115;-78
2023/09/23 06:29:53;;;;;;;2.72;2.53;;;;;;;-144.32;100.00;68061.97;10165660;29;20071;-78
2023/09/23 06:34:53;;;;;;;3.20;2.90;;;;;;;-144.32;100.00;68061.97;10200177;29;20082;-76
2023/09/23 06:39:54;;;;;;;3.50;3.17;;;;;;;-144.32;100.00;68061.97;10181197;29;20119;-81
2023/09/23 06:44:54;;;;;;;4.25;2.92;;;;;;;-144.32;100.00;68061.97;10172436;29;20040;-81
2023/09/23 06:49:55;;;;;;;3.38;2.53;;;;;;;-144.32;100.00;68061.97;10156672;29;20066;-78
2023/09/23 06:54:55;;;;;;;3.22;2.92;;;;;;;-144.32;100.00;68061.97;10176753;29;20151;-79
2023/09/23 06:59:56;;;;;;;4.25;2.70;;;;;;;-144.32;100.00;68061.97;10177606;29;20102;-79
2023/09/23 07:04:56;;;;;;;4.60;3.20;;;;;;;-144.32;100.00;68061.97;10167011;29;20080;-81
2023/09/23 07:09:57;;;;;;;3.70;3.35;;;;;;;-144.32;100.00;68061.97;10199074;29;20067;-85
2023/09/23 07:14:57;;;;;;;3.72;3.42;;;;;;;-144.32;100.00;68061.97;10200401;29;20036;-83
2023/09/23 07:19:58;;;;;;;3.40;3.10;;;;;;;-144.32;100.00;68061.97;10182243;28;20146;-76
2023/09/23 07:24:59;;;;;;;4.50;2.67;;;;;;;-144.32;100.00;68061.97;10191697;29;20406;-83
2023/09/23 07:29:59;;;;;;;3.30;3.00;;;;;;;-144.32;100.00;68061.97;10176759;29;20067;-83
2023/09/23 07:35:00;;;;;;;11.73;8.68;;;;;;;-144.32;100.00;68061.97;10180469;28;20067;-78
2023/09/23 07:40:01;;;;;;;3.75;2.70;;;;;;;-144.32;100.00;68061.97;10147035;29;20054;-78
2023/09/23 07:45:01;;;;;;;11.93;6.35;;;;;;;-144.32;100.00;68061.97;10164685;29;20050;-84
2023/09/23 07:50:03;;;;;;;5.38;4.13;;;;;;;-144.32;100.00;68061.97;10176726;29;20059;-81
2023/09/23 07:55:04;;;;;;;2.65;2.17;;;;;;;-144.32;100.00;68061.97;10155929;29;20048;-80
2023/09/23 08:00:09;;;;;;;4.13;2.38;;;;;;;-144.32;100.00;68061.97;10153209;28;20048;-81
2023/09/23 08:05:14;;;;;;;3.03;2.20;;;;;;;-144.32;100.00;68061.97;10170668;29;20056;-81
2023/09/23 08:10:15;;;;;;;3.60;1.88;;;;;;;-144.32;100.00;68061.97;10170589;29;20151;-83
2023/09/23 08:15:16;;;;;;;1.75;1.52;;;;;;;-144.32;100.00;68061.97;10172093;29;20040;-81
2023/09/23 08:20:21;;;;;;;2.03;1.30;;;;;;;-144.32;100.00;68061.97;10153541;29;20047;-80
2023/09/23 08:25:22;;;;;;;3.92;1.60;;;;;;;-144.32;100.00;68061.97;10168385;29;20044;-82
2023/09/23 08:30:22;;;;;;;1.85;1.70;;;;;;;-144.32;100.00;68061.97;10180561;29;20799;-82
2023/09/23 08:35:23;;;;;;;2.88;1.50;;;;;;;-144.32;100.00;68061.97;10196720;29;20050;-80
2023/09/23 08:40:24;;;;;;;3.75;1.25;;;;;;;-144.32;100.00;68061.97;10218887;28;20048;-80
2023/09/23 08:45:27;;;;;;;1.90;1.35;;;;;;;-144.32;100.00;68061.97;10213346;29;20722;-81
2023/09/23 08:50:29;;;;;;;2.85;1.60;;;;;;;-144.32;100.00;68061.97;10184189;29;20054;-82
2023/09/23 08:55:30;;;;;;;3.88;1.35;;;;;;;-144.32;100.00;68061.97;10177785;29;20087;-82
2023/09/23 09:00:34;;;;;;;1.67;1.40;;;;;;;-144.32;100.00;68061.97;10179254;29;20108;-81
2023/09/23 09:05:41;;;;;;;3.95;1.30;;;;;;;-144.32;100.00;68061.97;10167787;29;20044;-81
2023/09/23 09:10:41;;;;;;;1.40;1.23;;;;;;;-144.32;100.00;68061.97;10187236;29;20047;-82
2023/09/23 09:15:44;;;;;;;2.65;1.15;;;;;;;-144.32;100.00;68061.97;10204209;29;20460;-81
2023/09/23 09:20:45;;;;;;;3.97;1.30;;;;;;;-144.32;100.00;68061.97;10203883;29;20111;-82
2023/09/23 09:25:49;;;;;;;1.40;1.20;;;;;;;-144.32;100.00;68061.97;10209263;29;20051;-82
2023/09/23 09:30:55;;;;;;;2.28;1.25;;;;;;;-144.32;100.00;68061.97;10188920;29;20070;-78
2023/09/23 09:35:56;;;;;;;1.60;1.33;;;;;;;-144.32;100.00;68061.97;10181312;29;20095;-76
2023/09/23 09:41:04;;;;;;;2.38;1.10;;;;;;;-144.32;100.00;68061.97;10180569;29;20044;-77
2023/09/23 09:46:08;;;;;;;2.40;1.20;;;;;;;-144.32;100.00;68061.97;10184292;29;20048;-75
2023/09/23 09:51:13;;;;;;;2.13;1.48;;;;;;;-144.32;100.00;68061.97;10181054;29;20932;-80
2023/09/23 09:56:16;;;;;;;3.45;1.58;;;;;;;-144.32;100.00;68061.97;10167932;29;20052;-79
2023/09/23 10:01:17;;;;;;;;;;;;;;;-144.32;100.00;68061.97;10174373;29;20052;-79
2023/09/23 10:06:26;;;;;;;2.75;1.35;;;;;;;-144.32;100.00;68061.97;10172989;29;20277;-78
2023/09/23 10:11:34;;;;;;;1.40;1.30;;;;;;;-144.32;100.00;68061.97;10173312;28;20056;-77
2023/09/23 10:16:35;;;;;;;1.63;1.13;;;;;;;-144.32;100.00;68061.97;10163572;29;20545;-78
2023/09/23 10:21:35;;;;;;;2.22;1.20;;;;;;;-144.32;100.00;68061.97;10168586;29;20123;-79
2023/09/23 10:26:43;;;;;;;3.10;1.30;;;;;;;-144.32;100.00;68061.97;10173245;29;20048;-80
2023/09/23 10:31:44;;;;;;;1.45;1.05;;;;;;;-144.32;100.00;68061.97;10175605;29;20055;-80
2023/09/23 10:36:48;;;;;;;2.75;1.20;;;;;;;-144.32;100.00;68061.97;10197269;29;20031;-80
2023/09/23 10:41:49;;;;;;;1.40;1.10;;;;;;;-144.32;100.00;68061.97;10204367;29;20565;-80
2023/09/23 10:46:49;;;;;;;2.67;1.77;;;;;;;-144.32;100.00;68061.97;10180851;29;20102;-81
2023/09/23 10:51:51;;;;;;;2.58;1.50;;;;;;;-144.32;100.00;68061.97;10174020;29;20879;-82
2023/09/23 10:56:52;;;;;;;1.50;1.13;;;;;;;-144.32;100.00;68061.97;10177198;29;20044;-80
2023/09/23 11:02:05;;;;;;;5.10;3.45;;;;;;;-144.32;100.00;68061.97;10157250;29;20044;-79
2023/09/23 11:07:06;;;;;;;1.52;1.35;;;;;;;-144.32;100.00;68061.97;10191401;29;20076;-78
2023/09/23 11:12:12;;;;;;;11.82;6.40;;;;;;;-144.32;100.00;68061.97;10176984;29;20110;-80
2023/09/23 11:17:20;;;;;;;2.90;0.98;;;;;;;-144.32;100.00;68061.97;10151516;29;20040;-80
2023/09/23 11:22:30;;;;;;;2.15;1.00;;;;;;;-144.32;100.00;68061.97;10166617;29;20043;-80
2023/09/23 11:27:31;;;;;;;1.13;0.90;;;;;;;-144.32;100.00;68061.97;10169369;29;20071;-79
2023/09/23 11:32:33;;;;;;;2.00;1.05;;;;;;;-144.32;100.00;68061.97;10170819;29;20055;-80
2023/09/23 11:37:33;;;;;;;2.35;1.17;;;;;;;-144.32;100.00;68061.97;10186134;29;20059;-83
2023/09/23 11:42:34;;;;;;;2.63;1.00;;;;;;;-144.32;100.00;68061.97;10166237;28;20115;-83
2023/09/23 11:47:34;;;;;;;1.73;1.00;;;;;;;-144.32;100.00;68061.97;10174491;29;20099;-83
2023/09/23 11:52:35;;;;;;;1.70;1.20;;;;;;;-144.32;100.00;68061.97;10176183;29;20051;-81
2023/09/23 11:57:36;;;;;;;1.83;1.10;;;;;;;-144.32;100.00;68061.97;10166372;29;20450;-82
2023/09/23 12:02:41;;;;;;;1.92;1.08;;;;;;;-144.32;100.00;68061.97;10168150;29;20047;-81
2023/09/23 12:07:41;;;;;;;2.35;1.10;;;;;;;-144.32;100.00;68061.97;10167197;29;20052;-80
2023/09/23 12:12:45;;;;;;;1.95;1.08;;;;;;;-144.32;100.00;68061.97;10158320;29;20512;-83
2023/09/23 12:17:45;;;;;;;1.70;1.00;;;;;;;-144.32;100.00;68061.97;10167008;29;20047;-83
2023/09/23 12:22:50;;;;;;;2.70;1.20;;;;;;;-144.32;100.00;68061.97;10166541;29;20051;-81
2023/09/23 12:27:50;;;;;;;3.85;1.35;;;;;;;-144.32;100.00;68061.97;10197838;29;20084;-82
2023/09/23 12:32:51;;;;;;;2.17;1.15;;;;;;;-144.32;100.00;68061.97;10189206;29;20075;-82
2023/09/23 12:37:51;;;;;;;2.08;1.30;;;;;;;-144.32;100.00;68061.97;10178771;29;20055;-81
2023/09/23 12:42:52;;;;;;;2.58;1.30;;;;;;;-144.32;100.00;68061.97;10150044;29;20051;-80
2023/09/23 12:47:52;;;;;;;4.60;1.77;;;;;;;-144.32;100.00;68061.97;10166065;29;20047;-76
2023/09/23 12:52:53;;;;;;;4.50;2.08;;;;;;;-144.32;100.00;68061.97;10149900;29;20036;-77
2023/09/23 12:57:55;;;;;;;4.65;1.88;;;;;;;-144.32;100.00;68061.97;10172881;29;20116;-78
2023/09/23 13:02:55;;;;;;;2.90;1.30;;;;;;;-144.32;100.00;68061.97;10159006;29;20072;-79
2023/09/23 13:07:55;;;;;;;3.83;1.45;;;;;;;-144.32;100.00;68061.97;10165281;29;20068;-78
2023/09/23 13:12:56;;;;;;;3.47;1.52;;;;;;;-144.32;100.00;68061.97;10181234;29;20044;-78
2023/09/23 13:17:56;;;;;;;2.17;1.15;;;;;;;-144.32;100.00;68061.97;10179208;29;20036;-81
2023/09/23 13:22:57;;;;;;;4.13;1.40;;;;;;;-144.32;100.00;68061.97;10169297;29;20139;-81
2023/09/23 13:27:57;;;;;;;1.67;1.27;;;;;;;-144.32;100.00;68061.97;10195920;29;20160;-80
2023/09/23 13:32:58;;;;;;;2.53;1.20;;;;;;;-144.32;100.00;68061.97;10201046;29;20699;-78
2023/09/23 13:37:58;;;;;;;3.20;1.50;;;;;;;-144.32;100.00;68061.97;10178947;29;20052;-77
2023/09/23 13:42:59;;;;;;;4.90;1.75;;;;;;;-144.32;100.00;68061.97;10169632;29;20071;-79
2023/09/23 13:48:00;;;;;;;2.70;1.30;;;;;;;-144.32;100.00;68061.97;10177120;29;20044;-78
2023/09/23 13:53:00;;;;;;;3.35;1.40;;;;;;;-144.32;100.00;68061.97;10175180;29;20391;-79
2023/09/23 13:58:02;;;;;;;2.95;1.30;;;;;;;-144.32;100.00;68061.97;10193638;29;20086;-80
2023/09/23 14:03:03;;;;;;;2.30;1.30;;;;;;;-144.32;100.00;68061.97;10181092;29;20051;-80
2023/09/23 14:08:04;;;;;;;1.92;1.20;;;;;;;-144.32;100.00;68061.97;10186748;29;20055;-77
2023/09/23 14:13:05;;;;;;;3.00;1.10;;;;;;;-144.32;100.00;68061.97;10179510;29;20079;-79
2023/09/23 14:18:05;;;;;;;3.22;1.23;;;;;;;-144.32;100.00;68061.97;10179863;29;20054;-79
2023/09/23 14:23:08;;;;;;;2.22;0.98;;;;;;;-144.32;100.00;68061.97;10152919;29;20424;-78
2023/09/23 14:28:08;;;;;;;1.50;0.95;;;;;;;-144.32;100.00;68061.97;10161011;29;20080;-79
2023/09/23 14:33:09;;;;;;;2.88;1.17;;;;;;;-144.32;100.00;68061.97;10148966;29;20158;-80
2023/09/23 14:38:10;;;;;;;2.30;1.08;;;;;;;-144.32;100.00;68061.97;10181655;29;20056;-80
2023/09/23 14:43:11;;;;;;;3.25;1.10;;;;;;;-144.32;100.00;68061.97;10183848;29;20062;-78
2023/09/23 14:48:12;;;;;;;2.80;1.08;;;;;;;-144.32;100.00;68061.97;10177985;29;20047;-80
2023/09/23 14:53:15;;;;;;;3.50;1.15;;;;;;;-144.32;100.00;68061.97;10182975;29;20048;-80
2023/09/23 14:58:16;;;;;;;2.75;1.38;;;;;;;-144.32;100.00;68061.97;10182789;29;20052;-77
2023/09/23 15:03:16;;;;;;;1.70;1.25;;;;;;;-144.32;100.00;68061.97;10180201;29;20099;-78
2023/09/23 15:08:17;;;;;;;3.28;1.42;;;;;;;-144.32;100.00;68061.97;10161311;29;20052;-79
2023/09/23 15:13:18;;;;;;;2.90;1.90;;;;;;;-144.32;100.00;68061.97;10160070;29;20063;-78
2023/09/23 15:18:19;;;;;;;8.30;5.70;;;;;;;-144.32;100.00;68061.97;10163957;29;20376;-79
2023/09/23 15:23:19;;;;;;;3.53;1.90;;;;;;;-144.32;100.00;68061.97;10163328;29;20052;-79
2023/09/23 15:28:20;;;;;;;4.10;3.50;;;;;;;-144.32;100.00;68061.97;10155902;29;20147;-80
2023/09/23 15:33:21;;;;;;;2.60;1.60;;;;;;;-144.32;100.00;68061.97;10167621;29;20046;-78
2023/09/23 15:38:24;;;;;;;3.70;2.83;;;;;;;-144.32;100.00;68061.97;10174650;29;20103;-79
2023/09/23 15:43:25;;;;;;;;;;;;;;;-144.32;100.00;68061.97;10150003;29;20071;-77
2023/09/23 15:48:25;;;;;;;9.20;6.05;;;;;;;-144.32;100.00;68061.97;10146837;29;19938;-79
2023/09/23 15:53:26;;;;;;;5.97;3.65;;;;;;;-144.32;100.00;68061.97;10174134;28;20135;-77
2023/09/23 15:58:26;;;;;;;7.30;4.80;;;;;;;-144.32;100.00;68061.97;10180143;29;20048;-81
2023/09/23 16:03:28;;;;;;;4.05;2.75;;;;;;;-144.32;100.00;68061.97;10150680;29;20056;-79
2023/09/23 16:08:29;;;;;;;5.13;3.10;;;;;;;-144.32;100.00;68061.97;10168593;29;20091;-80
2023/09/23 16:13:31;;;;;;;4.88;2.88;;;;;;;-144.32;100.00;68061.97;10180282;29;20120;-80
2023/09/23 16:18:35;;;;;;;8.60;4.00;;;;;;;-144.32;100.00;68061.97;10171729;29;20210;-79
2023/09/23 16:23:35;;;;;;;6.70;4.15;;;;;;;-144.32;100.00;68061.97;10144170;29;20126;-77
2023/09/23 16:28:39;;;;;;;11.23;5.13;;;;;;;-144.32;100.00;68061.97;10152157;29;20051;-78
2023/09/23 16:33:40;;;;;;;4.75;2.22;;;;;;;-144.32;100.00;68061.97;10185357;29;20126;-79
2023/09/23 16:38:40;;;;;;;3.90;2.25;;;;;;;-144.32;100.00;68061.97;10178648;29;20392;-78
2023/09/23 16:43:41;;;;;;;3.10;2.00;;;;;;;-144.32;100.00;68061.97;10153551;29;20620;-80
2023/09/23 16:48:44;;;;;;;4.10;2.70;;;;;;;-144.32;100.00;68061.97;10175562;28;20043;-77
2023/09/23 16:53:47;;;;;;;5.43;2.20;;;;;;;-144.32;100.00;68061.97;10175392;29;20098;-78
2023/09/23 16:58:50;;;;;;;2.92;1.88;;;;;;;-144.32;100.00;68061.97;10158469;29;20104;-79
2023/09/23 17:03:51;;;;;;;4.72;1.95;;;;;;;-144.32;100.00;68061.97;10172557;29;20052;-77
2023/09/23 17:08:51;;;;;;;3.78;1.90;;;;;;;-144.32;100.00;68061.97;10172434;29;20724;-78
2023/09/23 17:13:52;;;;;;;5.93;2.60;;;;;;;-144.32;100.00;68061.97;10180278;29;20048;-78
2023/09/23 17:18:52;;;;;;;4.50;2.78;;;;;;;-144.32;100.00;68061.97;10188902;29;20054;-79
2023/09/23 17:23:53;;;;;;;5.13;2.38;;;;;;;-144.32;100.00;68061.97;10184458;29;20044;-78
2023/09/23 17:28:59;;;;;;;4.38;2.60;;;;;;;-144.32;100.00;68061.97;10193683;29;20054;-77
2023/09/23 17:34:01;;;;;;;4.65;3.08;;;;;;;-144.32;100.00;68061.97;10184289;29;21642;-76
2023/09/23 17:39:02;;;;;;;5.43;4.00;;;;;;;-144.32;100.00;68061.97;10156866;29;20139;-77
2023/09/23 17:44:03;;;;;;;5.20;3.30;;;;;;;-144.32;100.00;68061.97;10163202;29;20527;-78
2023/09/23 17:49:04;;;;;;;5.93;4.78;;;;;;;-144.32;100.00;68061.97;10171128;29;20048;-78
2023/09/23 17:54:07;;;;;;;3.05;2.72;;;;;;;-144.32;100.00;68061.97;10144176;29;20051;-78
2023/09/23 17:59:08;;;;;;;4.75;2.75;;;;;;;-144.32;100.00;68061.97;10169799;29;20142;-78
2023/09/23 18:04:13;;;;;;;3.50;2.75;;;;;;;-144.32;100.00;68061.97;10167642;29;20058;-79
2023/09/23 18:09:14;;;;;;;2.97;2.63;;;;;;;-144.32;100.00;68061.97;10167510;29;20044;-77
2023/09/23 18:14:16;;;;;;;4.35;3.20;;;;;;;-144.32;100.00;68061.97;10151711;29;20044;-80
2023/09/23 18:19:17;;;;;;;4.72;3.55;;;;;;;-144.32;100.00;68061.97;10150160;29;20048;-78
2023/09/23 18:24:17;;;;;;;6.00;3.80;;;;;;;-144.32;100.00;68061.97;10174391;29;20048;-78
2023/09/23 18:29:18;;;;;;;4.38;3.58;;;;;;;-144.32;100.00;68061.97;10179938;29;20052;-79
2023/09/23 18:34:20;;;;;;;3.95;3.10;;;;;;;-144.32;100.00;68061.97;10181669;29;20055;-80
2023/09/23 18:39:20;;;;;;;5.53;3.05;;;;;;;-144.32;100.00;68061.97;10192383;29;20059;-79
2023/09/23 18:44:21;;;;;;;4.25;3.05;;;;;;;-144.32;100.00;68061.97;10179556;29;20052;-81
2023/09/23 18:49:21;;;;;;;4.45;3.00;;;;;;;-144.32;100.00;68061.97;10160745;29;20139;-82
2023/09/23 18:54:23;;;;;;;5.38;4.13;;;;;;;-144.32;100.00;68061.97;10193014;29;20506;-83
2023/09/23 18:59:24;;;;;;;4.95;3.70;;;;;;;-144.32;100.00;68061.97;10155565;29;20651;-86
2023/09/23 19:04:25;;;;;;;4.53;3.80;;;;;;;-144.32;100.00;68061.97;10175311;29;20111;-81
2023/09/23 19:09:26;;;;;;;6.78;4.07;;;;;;;-144.32;100.00;68061.97;10197360;29;20067;-82
2023/09/23 19:14:27;;;;;;;8.30;4.65;;;;;;;-144.32;100.00;68061.97;10166296;29;21073;-79
2023/09/23 19:19:27;;;;;;;6.07;3.90;;;;;;;-144.32;100.00;68061.97;10178961;29;20076;-81
2023/09/23 19:24:28;;;;;;;5.10;4.13;;;;;;;-144.32;100.00;68061.97;10178624;29;20043;-79
2023/09/23 19:29:29;;;;;;;4.30;3.63;;;;;;;-144.32;100.00;68061.97;10182031;29;21046;-80
2023/09/23 19:34:30;;;;;;;6.22;4.40;;;;;;;-144.32;100.00;68061.97;10175787;29;20048;-79
2023/09/23 19:39:36;;;;;;;5.40;4.28;;;;;;;-144.32;100.00;68061.97;10178842;29;20063;-79
2023/09/23 19:44:40;;;;;;;5.38;4.40;;;;;;;-144.32;100.00;68061.97;10199571;29;20056;-79
2023/09/23 19:49:42;;;;;;;6.20;4.55;;;;;;;-144.32;100.00;68061.97;10204965;29;20095;-79
2023/09/23 19:54:42;;;;;;;6.10;4.82;;;;;;;-144.32;100.00;68061.97;10188407;29;20040;-78
2023/09/23 19:59:44;;;;;;;6.90;4.80;;;;;;;-144.32;100.00;68061.97;10173009;29;20111;-79
2023/09/23 20:04:46;;;;;;;6.47;4.63;;;;;;;-144.32;100.00;68061.97;10177087;29;20119;-80
2023/09/23 20:09:48;;;;;;;5.90;5.22;;;;;;;-144.32;100.00;68061.97;10164404;29;20095;-78
2023/09/23 20:14:51;;;;;;;8.70;5.30;;;;;;;-144.32;100.00;68061.97;10160282;29;20048;-76
2023/09/23 20:19:51;;;;;;;7.80;5.13;;;;;;;-144.32;100.00;68061.97;10166469;29;20044;-80
2023/09/23 20:24:53;;;;;;;7.35;5.15;;;;;;;-144.32;100.00;68061.97;10169751;29;20152;-81
2023/09/23 20:29:54;;;;;;;7.78;5.15;;;;;;;-144.32;100.00;68061.97;10176649;29;21043;-79
2023/09/23 20:34:55;;;;;;;5.43;4.85;;;;;;;-144.32;100.00;68061.97;10178822;29;20409;-79
2023/09/23 20:39:55;;;;;;;6.43;4.85;;;;;;;-144.32;100.00;68061.97;10157849;29;20040;-80
2023/09/23 20:44:56;;;;;;;5.93;4.75;;;;;;;-144.32;100.00;68061.97;10175527;29;20052;-78
2023/09/23 20:49:57;;;;;;;5.50;3.83;;;;;;;-144.32;100.00;68061.97;10175909;29;20052;-79
2023/09/23 20:55:00;;;;;;;5.15;4.07;;;;;;;-144.32;100.00;68061.97;10151192;29;20467;-78
2023/09/23 21:00:05;;;;;;;4.77;3.30;;;;;;;-144.32;100.00;68061.97;10164756;29;20048;-78
2023/09/23 21:05:06;;;;;;;3.75;3.10;;;;;;;-144.32;100.00;68061.97;10151968;29;20044;-80
2023/09/23 21:10:10;;;;;;;4.95;3.20;;;;;;;-144.32;100.00;68061.97;10149161;29;20179;-79
2023/09/23 21:15:14;;;;;;;4.57;2.95;;;;;;;-144.32;100.00;68061.97;10145689;29;20059;-78
2023/09/23 21:20:16;;;;;;;3.85;2.88;;;;;;;-144.32;100.00;68061.97;10164180;29;20131;-79
2023/09/23 21:25:16;;;;;;;4.13;3.08;;;;;;;-144.32;100.00;68061.97;10150715;29;20337;-78
2023/09/23 21:30:18;;;;;;;4.07;2.85;;;;;;;-144.32;100.00;68061.97;10160558;29;20043;-78
2023/09/23 21:35:19;;;;;;;4.55;3.60;;;;;;;-144.32;100.00;68061.97;10171747;29;20056;-77
2023/09/23 21:40:19;;;;;;;4.60;2.90;;;;;;;-144.32;100.00;68061.97;10158853;29;20785;-81
2023/09/23 21:45:20;;;;;;;3.65;2.88;;;;;;;-144.32;100.00;68061.97;10176842;28;20048;-78
2023/09/23 21:50:20;;;;;;;4.55;3.10;;;;;;;-144.32;100.00;68061.97;10159019;29;20052;-79
2023/09/23 21:55:21;;;;;;;2.70;2.17;;;;;;;-144.32;100.00;68061.97;10162135;29;20054;-77
2023/09/23 22:00:29;;;;;;;3.33;2.30;;;;;;;-144.32;100.00;68061.97;10182284;29;20055;-77
2023/09/23 22:05:30;;;;;;;2.95;2.42;;;;;;;-144.32;100.00;68061.97;10177803;29;20052;-78
2023/09/23 22:10:31;;;;;;;2.63;2.30;;;;;;;-144.32;100.00;68061.97;10196170;29;20048;-80
2023/09/23 22:15:31;;;;;;;3.63;2.40;;;;;;;-144.32;100.00;68061.97;10207126;29;20044;-81
2023/09/23 22:20:31;;;;;;;4.15;2.50;;;;;;;-144.32;100.00;68061.97;10192749;29;20187;-79
2023/09/23 22:25:35;;;;;;;4.38;2.83;;;;;;;-144.32;100.00;68061.97;10170181;29;20044;-79
2023/09/23 22:30:36;;;;;;;5.45;3.30;;;;;;;-144.32;100.00;68061.97;10162689;29;20103;-77
2023/09/23 22:35:36;;;;;;;3.90;3.22;;;;;;;-144.32;100.00;68061.97;10162524;29;20192;-78